Time;durP1;ratioP1;P1;durP2;ratioP2;P2;SDS_P1;SDS_P2;PMS_P1;PMS_P2;Temp;Humidity;BMP_temperature;BMP_pressure;BME280_temperature;BME280_humidity;BME280_pressure;Samples;Min_cycle;Max_cycle;Signal;HPM_P1;HPM_P2
2022/04/14 00:00:55;;;;;;;32.05;21.40;;;10.20;99.90;;;;;;5058042;28;20036;-73
2022/04/14 00:03:21;;;;;;;31.42;22.48;;;10.20;99.90;;;;;;5058289;28;20106;-73
2022/04/14 00:05:46;;;;;;;32.72;22.25;;;10.20;99.90;;;;;;5057590;28;20045;-75
2022/04/14 00:08:12;;;;;;;36.45;22.83;;;10.20;99.90;;;;;;5058096;28;20047;-74
2022/04/14 00:10:37;;;;;;;40.03;24.38;;;10.20;99.90;;;;;;5057787;28;20156;-73
2022/04/14 00:13:03;;;;;;;34.38;23.73;;;10.10;99.90;;;;;;5058010;28;20033;-74
2022/04/14 00:15:29;;;;;;;34.75;22.83;;;10.10;99.90;;;;;;5057973;28;20041;-74
2022/04/14 00:17:55;;;;;;;38.10;23.92;;;10.10;99.90;;;;;;5057894;28;20434;-72
2022/04/14 00:20:20;;;;;;;34.92;23.85;;;10.10;99.90;;;;;;5057794;28;20048;-74
2022/04/14 00:22:46;;;;;;;35.90;24.45;;;10.10;99.90;;;;;;5040614;28;20131;-74
2022/04/14 00:25:12;;;;;;;36.40;25.90;;;10.00;99.90;;;;;;5057374;28;20120;-73
2022/04/14 00:27:38;;;;;;;35.10;23.13;;;10.00;99.90;;;;;;5057448;28;20091;-73
2022/04/14 00:30:04;;;;;;;36.03;25.45;;;10.00;99.90;;;;;;5057689;28;20423;-73
2022/04/14 00:32:32;;;;;;;34.13;24.63;;;10.00;99.90;;;;;;5040497;28;20077;-74
2022/04/14 00:34:58;;;;;;;41.17;26.10;;;9.90;99.90;;;;;;5057271;28;20120;-73
2022/04/14 00:37:23;;;;;;;36.85;25.38;;;9.90;99.90;;;;;;5039996;28;20124;-75
2022/04/14 00:39:50;;;;;;;41.28;28.48;;;9.90;99.90;;;;;;5057434;28;20040;-73
2022/04/14 00:42:16;;;;;;;40.05;27.65;;;9.80;99.90;;;;;;5039530;28;20052;-73
2022/04/14 00:44:41;;;;;;;45.60;28.33;;;9.80;99.90;;;;;;5057428;28;20040;-73
2022/04/14 00:47:07;;;;;;;40.50;28.13;;;9.80;99.90;;;;;;5039871;28;20343;-74
2022/04/14 00:49:36;;;;;;;40.60;27.40;;;9.70;99.90;;;;;;5057039;28;20117;-73
2022/04/14 00:52:03;;;;;;;42.45;28.95;;;9.70;99.90;;;;;;5057317;28;20053;-74
2022/04/14 00:54:30;;;;;;;42.40;28.77;;;9.70;99.90;;;;;;5039602;28;20053;-72
2022/04/14 00:56:57;;;;;;;47.15;29.63;;;9.60;99.90;;;;;;5056842;28;20084;-74
2022/04/14 00:59:24;;;;;;;46.50;29.38;;;9.70;99.90;;;;;;5039015;28;20072;-74
2022/04/14 01:01:50;;;;;;;39.88;29.40;;;9.70;99.90;;;;;;5056446;28;20048;-73
2022/04/14 01:04:16;;;;;;;48.83;32.55;;;9.70;99.90;;;;;;5056298;28;20363;-74
2022/04/14 01:06:43;;;;;;;47.90;32.78;;;9.70;99.90;;;;;;5056689;28;20041;-74
2022/04/14 01:09:18;;;;;;;44.25;30.63;;;9.70;99.90;;;;;;5039459;28;20053;-74
2022/04/14 01:11:45;;;;;;;43.38;31.80;;;9.70;99.90;;;;;;5039200;28;20044;-74
2022/04/14 01:14:31;;;;;;;53.38;33.45;;;9.60;99.90;;;;;;5056657;28;20108;-74
2022/04/14 01:17:00;;;;;;;52.25;32.45;;;9.70;99.90;;;;;;5055896;28;20045;-72
2022/04/14 01:19:26;;;;;;;51.58;34.65;;;9.60;99.90;;;;;;5039553;28;20513;-74
2022/04/14 01:22:11;;;;;;;50.65;33.42;;;9.70;99.90;;;;;;5056897;28;20045;-74
2022/04/14 01:24:38;;;;;;;49.53;32.35;;;9.60;99.90;;;;;;5056268;28;20113;-73
2022/04/14 01:27:04;;;;;;;49.13;33.58;;;9.70;99.90;;;;;;5056495;28;20033;-73
2022/04/14 01:29:30;;;;;;;50.05;32.72;;;9.60;99.90;;;;;;5056544;28;20056;-73
2022/04/14 01:31:58;;;;;;;53.58;33.88;;;9.60;99.90;;;;;;5056337;28;20040;-72
2022/04/14 01:34:25;;;;;;;47.83;33.05;;;9.50;99.90;;;;;;5055555;28;20095;-74
2022/04/14 01:36:50;;;;;;;48.92;33.45;;;9.50;99.90;;;;;;5055888;28;20051;-74
2022/04/14 01:39:16;;;;;;;53.72;34.50;;;9.50;99.90;;;;;;5056310;28;20335;-73
2022/04/14 01:41:43;;;;;;;52.33;35.22;;;9.40;99.90;;;;;;5056042;28;20033;-74
2022/04/14 01:44:10;;;;;;;55.10;35.80;;;9.40;99.90;;;;;;5056469;28;20119;-74
2022/04/14 01:46:37;;;;;;;57.97;35.97;;;9.40;99.90;;;;;;5055886;28;20071;-74
2022/04/14 01:49:03;;;;;;;56.05;38.15;;;9.40;99.90;;;;;;5055917;28;20509;-73
2022/04/14 01:51:30;;;;;;;54.58;36.25;;;9.40;99.90;;;;;;5038900;28;20041;-74
2022/04/14 01:53:56;;;;;;;55.25;37.47;;;9.30;99.90;;;;;;5055785;28;20140;-74
2022/04/14 01:56:22;;;;;;;54.63;37.75;;;9.30;99.90;;;;;;5055628;28;20123;-74
2022/04/14 01:58:49;;;;;;;62.65;38.42;;;9.30;99.90;;;;;;5055912;28;20043;-73
2022/04/14 02:01:15;;;;;;;59.05;38.67;;;9.30;99.90;;;;;;5055804;28;20063;-73
2022/04/14 02:03:40;;;;;;;58.40;38.97;;;9.20;99.90;;;;;;5056078;28;20033;-72
2022/04/14 02:06:06;;;;;;;58.63;37.65;;;9.20;99.90;;;;;;5038367;28;20137;-73
2022/04/14 02:08:31;;;;;;;65.10;38.58;;;9.20;99.90;;;;;;5055407;28;20459;-72
2022/04/14 02:10:57;;;;;;;55.20;37.83;;;9.20;99.90;;;;;;5038532;28;20110;-73
2022/04/14 02:13:23;;;;;;;64.85;39.30;;;9.20;99.90;;;;;;5054829;28;20076;-73
2022/04/14 02:15:48;;;;;;;57.95;38.95;;;9.20;99.90;;;;;;5055769;28;20436;-73
2022/04/14 02:18:14;;;;;;;65.90;38.85;;;9.20;99.90;;;;;;5055712;28;20431;-73
2022/04/14 02:20:39;;;;;;;56.50;39.35;;;9.20;99.90;;;;;;5038292;28;20056;-74
2022/04/14 02:23:05;;;;;;;64.28;39.70;;;9.10;99.90;;;;;;5055159;28;20044;-73
2022/04/14 02:25:31;;;;;;;60.35;38.88;;;9.10;99.90;;;;;;5055375;28;20037;-74
2022/04/14 02:27:56;;;;;;;62.72;39.78;;;9.10;99.90;;;;;;5055431;28;20044;-72
2022/04/14 02:30:22;;;;;;;64.43;40.40;;;9.10;99.90;;;;;;5055146;28;20328;-75
2022/04/14 02:32:47;;;;;;;61.67;40.53;;;9.10;99.90;;;;;;5055308;28;20485;-74
2022/04/14 02:35:14;;;;;;;63.90;40.50;;;9.10;99.90;;;;;;5055215;28;20033;-75
2022/04/14 02:37:40;;;;;;;69.22;40.33;;;9.10;99.90;;;;;;5037504;28;20068;-74
2022/04/14 02:40:06;;;;;;;61.20;39.65;;;9.00;99.90;;;;;;5055236;28;20076;-74
2022/04/14 02:42:32;;;;;;;75.25;44.17;;;9.00;99.90;;;;;;5055208;28;20399;-73
2022/04/14 02:44:57;;;;;;;74.70;42.70;;;9.00;99.90;;;;;;5055011;28;20076;-74
2022/04/14 02:47:23;;;;;;;68.88;42.47;;;9.00;99.90;;;;;;5054690;28;20029;-73
2022/04/14 02:49:48;;;;;;;71.00;44.72;;;8.90;99.90;;;;;;5054853;28;20132;-73
2022/04/14 02:52:14;;;;;;;72.28;45.00;;;8.90;99.90;;;;;;5054558;28;20036;-72
2022/04/14 02:54:39;;;;;;;71.35;44.55;;;8.90;99.90;;;;;;5055252;28;20041;-73
2022/04/14 02:57:06;;;;;;;68.95;42.78;;;8.90;99.90;;;;;;5055048;28;20098;-74
2022/04/14 02:59:32;;;;;;;71.05;43.97;;;8.80;99.90;;;;;;5054612;28;20044;-74
2022/04/14 03:01:57;;;;;;;71.05;44.45;;;8.90;99.90;;;;;;5054777;28;20045;-74
2022/04/14 03:04:23;;;;;;;71.32;43.65;;;8.80;99.90;;;;;;5055037;28;20033;-73
2022/04/14 03:06:48;;;;;;;73.63;47.55;;;8.90;99.90;;;;;;5054465;28;20047;-72
2022/04/14 03:09:14;;;;;;;75.28;44.95;;;8.90;99.90;;;;;;5054946;28;20059;-72
2022/04/14 03:11:39;;;;;;;67.90;45.42;;;8.80;99.90;;;;;;5054810;28;20140;-73
2022/04/14 03:14:06;;;;;;;74.10;44.03;;;8.80;99.90;;;;;;5037217;28;20537;-74
2022/04/14 03:16:31;;;;;;;73.13;44.33;;;8.80;99.90;;;;;;5054420;28;20112;-72
2022/04/14 03:18:57;;;;;;;74.07;44.55;;;8.80;99.90;;;;;;5036716;28;20065;-73
2022/04/14 03:21:22;;;;;;;71.43;44.50;;;8.70;99.90;;;;;;5037190;28;20332;-73
2022/04/14 03:23:48;;;;;;;63.17;42.83;;;8.70;99.90;;;;;;5056201;28;20036;-74
2022/04/14 03:26:13;;;;;;;65.35;42.60;;;8.70;99.90;;;;;;5058478;28;20045;-73
2022/04/14 03:28:39;;;;;;;68.57;45.00;;;8.70;99.90;;;;;;5058863;28;20080;-73
2022/04/14 03:31:04;;;;;;;66.70;43.72;;;8.70;99.90;;;;;;5058919;28;20072;-74
2022/04/14 03:33:30;;;;;;;70.07;46.47;;;8.70;99.90;;;;;;5058809;28;20389;-73
2022/04/14 03:35:56;;;;;;;73.55;45.67;;;8.80;99.90;;;;;;5058556;28;20067;-74
2022/04/14 03:38:22;;;;;;;65.70;45.20;;;8.80;99.90;;;;;;5058734;28;20080;-74
2022/04/14 03:40:47;;;;;;;77.45;46.78;;;8.80;99.90;;;;;;5058848;28;20097;-73
2022/04/14 03:43:13;;;;;;;67.90;46.03;;;8.80;99.90;;;;;;5041031;28;20037;-73
2022/04/14 03:45:38;;;;;;;72.82;48.58;;;8.80;99.90;;;;;;5058404;28;20043;-74
2022/04/14 03:48:04;;;;;;;71.97;46.35;;;8.70;99.90;;;;;;5058386;28;20037;-73
2022/04/14 03:50:30;;;;;;;80.75;47.47;;;8.70;99.90;;;;;;5058498;28;20115;-74
2022/04/14 03:52:55;;;;;;;70.47;45.28;;;8.70;99.90;;;;;;5058076;28;20102;-73
2022/04/14 03:55:21;;;;;;;77.60;47.85;;;8.70;99.90;;;;;;5058420;28;20461;-73
2022/04/14 03:57:46;;;;;;;70.65;44.22;;;8.70;99.90;;;;;;5058502;28;20506;-73
2022/04/14 04:00:12;;;;;;;70.20;45.28;;;8.70;99.90;;;;;;5058126;28;20048;-73
2022/04/14 04:02:39;;;;;;;69.55;46.78;;;8.60;99.90;;;;;;5058020;28;20036;-74
2022/04/14 04:05:05;;;;;;;72.80;47.33;;;8.70;99.90;;;;;;5058044;28;20091;-72
2022/04/14 04:07:31;;;;;;;70.75;46.92;;;8.60;99.90;;;;;;5057778;28;20087;-72
2022/04/14 04:09:56;;;;;;;70.32;45.38;;;8.60;99.90;;;;;;5058145;28;20048;-74
2022/04/14 04:12:22;;;;;;;66.18;45.30;;;8.60;99.90;;;;;;5057878;28;20128;-72
2022/04/14 04:14:48;;;;;;;70.65;46.60;;;8.50;99.90;;;;;;5057884;28;20080;-73
2022/04/14 04:17:17;;;;;;;64.60;45.47;;;8.60;99.90;;;;;;5057298;28;20041;-73
2022/04/14 04:19:43;;;;;;;69.68;45.63;;;8.60;99.90;;;;;;5040273;28;20045;-74
2022/04/14 04:22:10;;;;;;;74.00;45.80;;;8.50;99.90;;;;;;5058446;28;20168;-74
2022/04/14 04:24:36;;;;;;;82.90;47.75;;;8.60;99.90;;;;;;5057446;28;20055;-74
2022/04/14 04:27:02;;;;;;;72.82;47.30;;;8.50;99.90;;;;;;5057604;28;20425;-73
2022/04/14 04:29:28;;;;;;;73.45;46.05;;;8.50;99.90;;;;;;5057429;28;20132;-73
2022/04/14 04:31:53;;;;;;;70.75;47.53;;;8.50;99.90;;;;;;5057900;28;20098;-74
2022/04/14 04:34:19;;;;;;;72.78;46.38;;;8.50;99.90;;;;;;5057329;28;20423;-73
2022/04/14 04:36:45;;;;;;;67.10;47.35;;;8.50;99.90;;;;;;5056915;28;20044;-74
2022/04/14 04:39:10;;;;;;;80.50;49.03;;;8.50;99.90;;;;;;5057229;28;20162;-73
2022/04/14 04:41:37;;;;;;;75.35;47.35;;;8.50;99.90;;;;;;5057478;28;20045;-72
2022/04/14 04:44:04;;;;;;;68.97;47.17;;;8.40;99.90;;;;;;5057191;28;20470;-73
2022/04/14 04:46:30;;;;;;;79.85;47.05;;;8.40;99.90;;;;;;5039972;28;20045;-72
2022/04/14 04:48:56;;;;;;;81.75;50.90;;;8.40;99.90;;;;;;5056997;28;20128;-74
2022/04/14 04:51:21;;;;;;;77.95;48.00;;;8.40;99.90;;;;;;5056775;28;20365;-73
2022/04/14 04:53:47;;;;;;;68.70;47.60;;;8.40;99.90;;;;;;5056985;28;20109;-74
2022/04/14 04:56:13;;;;;;;70.70;47.65;;;8.30;99.90;;;;;;5057217;28;20447;-73
2022/04/14 04:58:38;;;;;;;75.97;47.45;;;8.30;99.90;;;;;;5039810;28;20041;-74
2022/04/14 05:01:04;;;;;;;74.68;48.35;;;8.30;99.90;;;;;;5057145;28;20143;-73
2022/04/14 05:03:29;;;;;;;68.38;44.78;;;8.30;99.90;;;;;;5056464;28;20055;-73
2022/04/14 05:05:55;;;;;;;68.30;45.28;;;8.30;99.90;;;;;;5056656;28;20366;-73
2022/04/14 05:08:21;;;;;;;64.60;46.35;;;8.30;99.90;;;;;;5057209;28;20474;-73
2022/04/14 05:10:46;;;;;;;67.95;47.58;;;8.30;99.90;;;;;;5056751;28;20347;-74
2022/04/14 05:13:14;;;;;;;69.78;48.55;;;8.30;99.90;;;;;;5056621;28;20119;-73
2022/04/14 05:15:40;;;;;;;70.65;47.03;;;8.40;99.90;;;;;;5039100;28;20394;-74
2022/04/14 05:18:05;;;;;;;77.70;47.83;;;8.40;99.90;;;;;;5056943;28;20045;-72
2022/04/14 05:20:31;;;;;;;73.63;47.67;;;8.50;99.90;;;;;;5056381;28;20129;-73
2022/04/14 05:22:57;;;;;;;71.53;47.83;;;8.50;99.90;;;;;;5039246;28;20058;-72
2022/04/14 05:25:22;;;;;;;71.03;46.25;;;8.50;99.90;;;;;;5056804;28;20041;-71
2022/04/14 05:27:48;;;;;;;71.43;47.10;;;8.50;99.90;;;;;;5056362;28;20178;-71
2022/04/14 05:30:14;;;;;;;69.78;45.00;;;8.60;99.90;;;;;;5056395;28;20451;-72
2022/04/14 05:32:40;;;;;;;74.43;48.03;;;8.60;99.90;;;;;;5039154;28;20394;-74
2022/04/14 05:35:07;;;;;;;65.70;45.05;;;8.70;99.90;;;;;;5056362;28;20044;-73
2022/04/14 05:37:33;;;;;;;65.85;44.75;;;8.70;99.90;;;;;;5056506;28;20096;-72
2022/04/14 05:39:58;;;;;;;71.25;46.20;;;8.80;99.90;;;;;;5056202;28;20380;-72
2022/04/14 05:42:24;;;;;;;66.40;44.25;;;8.70;99.90;;;;;;5055827;28;20126;-73
2022/04/14 05:44:50;;;;;;;71.75;46.58;;;8.70;99.90;;;;;;5056262;28;20047;-74
2022/04/14 05:47:15;;;;;;;73.47;44.28;;;8.80;99.90;;;;;;5055817;28;20036;-73
2022/04/14 05:49:41;;;;;;;65.18;45.55;;;8.80;99.90;;;;;;5055382;28;20063;-72
2022/04/14 05:52:06;;;;;;;70.97;46.03;;;8.90;99.90;;;;;;5055955;28;20051;-74
2022/04/14 05:54:32;;;;;;;66.93;43.67;;;9.00;99.90;;;;;;5038013;28;20101;-72
2022/04/14 05:56:57;;;;;;;68.78;45.42;;;8.90;99.90;;;;;;5052392;28;20048;-74
2022/04/14 05:59:23;;;;;;;72.70;44.60;;;9.00;99.90;;;;;;5052920;28;20116;-74
2022/04/14 06:01:48;;;;;;;63.03;44.53;;;9.10;99.90;;;;;;5037653;28;20565;-74
2022/04/14 06:04:14;;;;;;;75.05;46.63;;;9.00;99.90;;;;;;5055042;28;20174;-72
2022/04/14 06:06:40;;;;;;;71.28;44.72;;;9.10;99.90;;;;;;5055706;28;20036;-73
2022/04/14 06:09:05;;;;;;;75.72;45.60;;;9.20;99.90;;;;;;5056073;28;20438;-74
2022/04/14 06:11:31;;;;;;;68.13;45.25;;;9.20;99.90;;;;;;5052528;28;20041;-73
2022/04/14 06:13:56;;;;;;;68.85;44.70;;;9.20;99.90;;;;;;5004441;28;20146;-73
2022/04/14 06:16:22;;;;;;;66.40;43.05;;;9.20;99.90;;;;;;5055494;28;20036;-73
2022/04/14 06:18:47;;;;;;;71.38;42.65;;;9.20;99.90;;;;;;5055385;28;20081;-74
2022/04/14 06:21:14;;;;;;;63.65;40.63;;;9.30;99.90;;;;;;5055701;28;20123;-73
2022/04/14 06:23:39;;;;;;;64.75;40.70;;;9.30;99.90;;;;;;5055164;28;20435;-74
2022/04/14 06:26:05;;;;;;;68.47;41.75;;;9.40;99.90;;;;;;5055491;28;20057;-73
2022/04/14 06:28:31;;;;;;;65.97;42.10;;;9.30;99.90;;;;;;5055117;28;20046;-73
2022/04/14 06:30:57;;;;;;;69.90;41.17;;;9.40;99.90;;;;;;5054874;28;20443;-74
2022/04/14 06:33:23;;;;;;;58.85;39.38;;;9.50;99.90;;;;;;5034489;28;20055;-73
2022/04/14 06:35:49;;;;;;;67.68;41.33;;;9.60;99.90;;;;;;5037756;28;20045;-74
2022/04/14 06:38:16;;;;;;;65.75;41.00;;;9.60;99.90;;;;;;5055254;28;20051;-73
2022/04/14 06:40:42;;;;;;;62.38;39.88;;;9.60;99.90;;;;;;5054846;28;20397;-73
2022/04/14 06:43:08;;;;;;;66.45;39.83;;;9.70;99.90;;;;;;5037033;28;20047;-73
2022/04/14 06:45:34;;;;;;;61.00;40.55;;;9.70;99.90;;;;;;5037856;28;20072;-74
2022/04/14 06:47:59;;;;;;;65.35;39.30;;;9.90;99.90;;;;;;5054728;28;20454;-74
2022/04/14 06:50:27;;;;;;;65.40;39.00;;;9.90;99.90;;;;;;5054883;28;20344;-73
2022/04/14 06:52:53;;;;;;;56.45;40.13;;;10.00;99.90;;;;;;5054958;28;20064;-73
2022/04/14 06:55:21;;;;;;;63.78;38.75;;;10.20;99.90;;;;;;5054997;28;20048;-73
2022/04/14 06:57:47;;;;;;;63.38;37.17;;;10.20;99.90;;;;;;5054154;28;20102;-72
2022/04/14 07:00:13;;;;;;;60.15;35.58;;;10.40;99.90;;;;;;5037236;28;20080;-73
2022/04/14 07:02:48;;;;;;;53.72;36.15;;;10.30;99.90;;;;;;5054542;28;20465;-72
2022/04/14 07:05:14;;;;;;;52.95;34.42;;;10.40;99.90;;;;;;5054750;28;20123;-73
2022/04/14 07:07:40;;;;;;;54.80;35.25;;;10.60;99.90;;;;;;5054659;28;20044;-72
2022/04/14 07:10:06;;;;;;;55.03;34.08;;;10.60;99.90;;;;;;5054918;28;20049;-73
2022/04/14 07:12:31;;;;;;;52.10;32.75;;;10.70;99.90;;;;;;5054909;28;20049;-72
2022/04/14 07:14:57;;;;;;;50.15;33.17;;;10.80;99.90;;;;;;5054236;28;20063;-73
2022/04/14 07:17:23;;;;;;;48.33;32.78;;;10.80;99.90;;;;;;5054690;28;20370;-73
2022/04/14 07:19:49;;;;;;;43.35;30.50;;;11.00;99.90;;;;;;5054856;28;20045;-73
2022/04/14 07:22:18;;;;;;;46.33;30.15;;;11.10;99.90;;;;;;5021274;28;20045;-73
2022/04/14 07:24:48;;;;;;;43.92;30.08;;;11.10;99.90;;;;;;5054055;28;20347;-73
2022/04/14 07:27:14;;;;;;;46.03;30.42;;;11.20;99.90;;;;;;5054632;28;20036;-73
2022/04/14 07:29:40;;;;;;;46.28;29.98;;;11.30;99.90;;;;;;5054151;28;20088;-73
2022/04/14 07:32:05;;;;;;;44.95;28.45;;;11.40;99.90;;;;;;5054095;28;20049;-74
2022/04/14 07:34:31;;;;;;;47.17;27.88;;;11.50;99.90;;;;;;5054661;28;20044;-73
2022/04/14 07:36:56;;;;;;;39.13;25.33;;;11.50;99.90;;;;;;5054361;28;20076;-74
2022/04/14 07:39:22;;;;;;;40.70;26.48;;;11.70;99.90;;;;;;5054967;28;20045;-74
2022/04/14 07:41:47;;;;;;;37.65;25.95;;;11.70;99.90;;;;;;5054367;28;20520;-74
2022/04/14 07:44:13;;;;;;;37.00;26.67;;;11.70;99.90;;;;;;5054229;28;20037;-73
2022/04/14 07:46:39;;;;;;;37.67;26.92;;;11.90;99.90;;;;;;5053894;28;20049;-74
2022/04/14 07:49:06;;;;;;;37.35;25.27;;;11.90;99.90;;;;;;5054202;28;20051;-74
2022/04/14 07:51:32;;;;;;;30.35;22.38;;;12.10;99.90;;;;;;5019377;28;20593;-74
2022/04/14 07:53:58;;;;;;;36.85;24.05;;;12.10;99.90;;;;;;5054295;28;20127;-74
2022/04/14 07:56:24;;;;;;;30.20;21.95;;;12.20;99.90;;;;;;5054382;28;20044;-73
2022/04/14 07:58:50;;;;;;;28.02;21.13;;;12.20;99.90;;;;;;5054256;28;20502;-75
2022/04/14 08:01:18;;;;;;;27.90;19.50;;;12.30;99.90;;;;;;5036744;28;20123;-74
2022/04/14 08:03:46;;;;;;;32.03;20.27;;;12.30;99.90;;;;;;5054289;28;20041;-74
2022/04/14 08:06:13;;;;;;;23.75;18.95;;;12.30;99.90;;;;;;5054316;28;20155;-74
2022/04/14 08:08:39;;;;;;;25.48;19.35;;;12.40;99.90;;;;;;5054087;28;20044;-74
2022/04/14 08:11:04;;;;;;;27.13;19.77;;;12.50;99.90;;;;;;5057704;28;20044;-73
2022/04/14 08:13:35;;;;;;;25.95;19.52;;;12.50;99.90;;;;;;5057296;28;20059;-74
2022/04/14 08:16:04;;;;;;;27.70;20.90;;;12.60;99.90;;;;;;5040791;28;20114;-74
2022/04/14 08:18:29;;;;;;;30.13;20.08;;;12.70;99.90;;;;;;5057796;28;20067;-74
2022/04/14 08:20:57;;;;;;;25.17;18.58;;;12.70;99.90;;;;;;5039938;28;20037;-74
2022/04/14 08:23:23;;;;;;;29.95;18.38;;;12.70;99.90;;;;;;5057824;28;20072;-74
2022/04/14 08:25:48;;;;;;;27.90;18.13;;;12.80;99.90;;;;;;5039830;28;20119;-74
2022/04/14 08:28:14;;;;;;;22.63;15.93;;;12.90;99.90;;;;;;5036539;28;20041;-74
2022/04/14 08:30:42;;;;;;;25.73;17.17;;;12.90;99.90;;;;;;5057332;28;20558;-74
2022/04/14 08:33:10;;;;;;;23.50;16.63;;;13.00;99.90;;;;;;5057668;28;20056;-73
2022/04/14 08:35:36;;;;;;;21.77;14.90;;;13.00;99.90;;;;;;5057492;28;20048;-74
2022/04/14 08:38:04;;;;;;;23.48;16.05;;;13.10;99.90;;;;;;5054141;28;20139;-74
2022/04/14 08:40:35;;;;;;;19.50;14.73;;;13.10;99.90;;;;;;5057441;28;20048;-75
2022/04/14 08:43:03;;;;;;;19.98;13.20;;;13.20;99.90;;;;;;5057276;28;20091;-74
2022/04/14 08:45:32;;;;;;;20.25;12.90;;;13.30;99.90;;;;;;5057671;28;20045;-75
2022/04/14 08:48:03;;;;;;;20.00;14.57;;;13.30;99.90;;;;;;5057165;28;20469;-74
2022/04/14 08:50:29;;;;;;;22.45;14.38;;;13.40;99.90;;;;;;5057282;28;20077;-74
2022/04/14 08:52:56;;;;;;;22.15;13.15;;;13.40;99.90;;;;;;5040130;28;20049;-74
2022/04/14 08:55:22;;;;;;;14.85;10.88;;;13.50;99.90;;;;;;5057169;28;20055;-73
2022/04/14 08:57:48;;;;;;;11.90;8.45;;;13.60;99.90;;;;;;5057120;28;20127;-74
2022/04/14 09:00:16;;;;;;;11.25;8.30;;;13.70;99.90;;;;;;5057184;28;20040;-74
2022/04/14 09:02:45;;;;;;;11.98;7.13;;;13.80;99.90;;;;;;5057179;28;20116;-73
2022/04/14 09:05:17;;;;;;;10.40;6.45;;;13.90;99.90;;;;;;5057293;28;20080;-73
2022/04/14 09:07:52;;;;;;;10.48;6.95;;;14.00;99.90;;;;;;5056503;28;20037;-75
2022/04/14 09:10:18;;;;;;;11.30;7.38;;;14.10;99.90;;;;;;5057022;28;20056;-73
2022/04/14 09:12:44;;;;;;;11.82;8.40;;;14.20;99.90;;;;;;5056900;28;20044;-73
2022/04/14 09:15:11;;;;;;;17.40;9.05;;;14.10;99.90;;;;;;5056911;28;20044;-73
2022/04/14 09:17:36;;;;;;;14.90;10.52;;;14.10;99.90;;;;;;5056541;28;20041;-74
2022/04/14 09:20:31;;;;;;;16.92;10.55;;;14.10;99.90;;;;;;5056932;28;20045;-75
2022/04/14 09:23:22;;;;;;;17.48;12.10;;;14.10;99.90;;;;;;5056382;28;20443;-73
2022/04/14 09:26:04;;;;;;;17.10;11.23;;;14.10;99.90;;;;;;5056763;28;20443;-74
2022/04/14 09:28:30;;;;;;;18.35;12.27;;;14.10;99.90;;;;;;5056477;28;20080;-74
2022/04/14 09:31:00;;;;;;;18.95;13.60;;;14.10;99.90;;;;;;5056356;28;20387;-75
2022/04/14 09:33:27;;;;;;;15.63;9.68;;;14.10;99.90;;;;;;5056172;28;20056;-73
2022/04/14 09:36:16;;;;;;;13.77;9.35;;;14.10;99.90;;;;;;5056699;28;20033;-74
2022/04/14 09:38:56;;;;;;;18.63;12.18;;;14.00;99.90;;;;;;5056254;28;20032;-73
2022/04/14 09:41:38;;;;;;;17.88;13.15;;;14.00;99.90;;;;;;5056240;28;20041;-74
2022/04/14 09:44:14;;;;;;;19.23;11.90;;;13.80;99.90;;;;;;5039179;28;20053;-75
2022/04/14 09:46:44;;;;;;;18.63;12.23;;;13.80;99.90;;;;;;5038941;28;20060;-75
2022/04/14 09:49:12;;;;;;;21.02;15.63;;;13.70;99.90;;;;;;5056280;28;20067;-74
2022/04/14 09:51:40;;;;;;;22.25;15.52;;;13.70;99.90;;;;;;5055114;28;20063;-74
2022/04/14 09:54:15;;;;;;;20.52;14.55;;;13.70;99.90;;;;;;5020940;28;20111;-75
2022/04/14 09:56:55;;;;;;;16.60;13.27;;;13.60;99.90;;;;;;5038763;28;20521;-74
2022/04/14 09:59:22;;;;;;;18.10;11.38;;;13.60;99.90;;;;;;5055995;28;20086;-74
2022/04/14 10:01:49;;;;;;;14.05;10.05;;;13.60;99.90;;;;;;5038242;28;20052;-74
2022/04/14 10:04:34;;;;;;;17.75;10.52;;;13.60;99.90;;;;;;5055555;28;20041;-74
2022/04/14 10:07:07;;;;;;;14.88;10.30;;;13.70;99.90;;;;;;5055322;28;20459;-74
2022/04/14 10:09:35;;;;;;;17.50;10.43;;;13.70;99.90;;;;;;5055728;28;20041;-73
2022/04/14 10:12:03;;;;;;;16.85;9.98;;;13.70;99.90;;;;;;5055659;28;20041;-74
2022/04/14 10:14:29;;;;;;;16.55;9.98;;;13.70;99.90;;;;;;5055311;28;20098;-74
2022/04/14 10:16:57;;;;;;;23.42;11.45;;;13.70;99.90;;;;;;5054981;28;20344;-75
2022/04/14 10:19:23;;;;;;;16.77;10.80;;;13.80;99.90;;;;;;5035592;28;20033;-74
2022/04/14 10:21:50;;;;;;;16.77;11.07;;;13.80;99.90;;;;;;5018539;28;20490;-74
2022/04/14 10:24:17;;;;;;;14.18;10.90;;;13.90;99.90;;;;;;5035534;28;20064;-75
2022/04/14 10:26:43;;;;;;;15.63;10.82;;;13.80;99.90;;;;;;5046889;28;20044;-73
2022/04/14 10:29:12;;;;;;;18.77;10.60;;;13.70;99.90;;;;;;5055549;28;20040;-73
2022/04/14 10:31:40;;;;;;;15.90;10.07;;;13.70;99.90;;;;;;5037363;28;20124;-73
2022/04/14 10:34:07;;;;;;;15.50;9.50;;;13.80;99.90;;;;;;5054469;28;20104;-75
2022/04/14 10:36:38;;;;;;;14.55;9.63;;;13.80;99.90;;;;;;5055425;28;20041;-74
2022/04/14 10:39:05;;;;;;;13.88;8.55;;;13.80;99.90;;;;;;5055381;28;20056;-74
2022/04/14 10:41:34;;;;;;;15.25;9.07;;;13.80;99.90;;;;;;5037203;28;20048;-73
2022/04/14 10:44:01;;;;;;;17.45;8.88;;;13.80;99.90;;;;;;5054947;28;20112;-73
2022/04/14 10:46:40;;;;;;;14.05;8.02;;;14.00;99.90;;;;;;5055343;28;20037;-73
2022/04/14 10:49:32;;;;;;;15.18;8.15;;;14.10;99.90;;;;;;5054846;28;20094;-74
2022/04/14 10:52:22;;;;;;;13.52;8.70;;;14.00;99.90;;;;;;5055100;28;20056;-74
2022/04/14 10:54:58;;;;;;;16.58;8.93;;;14.00;99.90;;;;;;5054755;28;20350;-75
2022/04/14 10:57:41;;;;;;;14.05;7.57;;;14.20;99.90;;;;;;5054619;28;20099;-74
2022/04/14 11:00:19;;;;;;;10.63;6.93;;;14.30;99.90;;;;;;5037206;28;20114;-74
2022/04/14 11:03:07;;;;;;;10.48;7.75;;;14.40;99.90;;;;;;5054906;28;20106;-73
2022/04/14 11:05:40;;;;;;;11.75;7.18;;;14.40;99.90;;;;;;5054826;28;20040;-75
2022/04/14 11:08:25;;;;;;;10.25;6.57;;;14.40;99.90;;;;;;5054718;28;20036;-74
2022/04/14 11:10:57;;;;;;;13.23;6.75;;;14.50;99.90;;;;;;5054289;28;20355;-75
2022/04/14 11:13:52;;;;;;;12.93;7.68;;;14.40;99.90;;;;;;5054492;28;20441;-73
2022/04/14 11:16:49;;;;;;;11.65;7.13;;;14.40;99.90;;;;;;5037113;28;20080;-74
2022/04/14 11:19:21;;;;;;;9.95;7.57;;;14.60;99.90;;;;;;5054324;28;20083;-73
2022/04/14 11:21:59;;;;;;;17.80;9.45;;;14.50;99.90;;;;;;5054903;28;20359;-75
2022/04/14 11:24:36;;;;;;;13.05;7.90;;;14.50;99.90;;;;;;5054788;28;20110;-74
2022/04/14 11:27:09;;;;;;;14.55;6.70;;;14.50;99.90;;;;;;5054992;28;20071;-73
2022/04/14 11:29:34;;;;;;;14.90;9.13;;;14.60;99.90;;;;;;5054113;28;20048;-74
2022/04/14 11:32:00;;;;;;;15.40;8.07;;;14.60;99.90;;;;;;5051190;28;20045;-73
2022/04/14 11:34:36;;;;;;;13.55;7.88;;;14.60;99.90;;;;;;5054266;28;20045;-75
2022/04/14 11:37:03;;;;;;;17.33;7.80;;;14.70;99.90;;;;;;5037095;28;20048;-74
2022/04/14 11:39:30;;;;;;;14.93;8.48;;;14.60;99.90;;;;;;5037462;28;20045;-75
2022/04/14 11:42:10;;;;;;;15.13;10.25;;;14.50;99.90;;;;;;5054542;28;20033;-74
2022/04/14 11:44:36;;;;;;;12.73;8.18;;;14.60;99.90;;;;;;5038350;28;20045;-74
2022/04/14 11:47:05;;;;;;;12.52;8.20;;;14.50;99.90;;;;;;5058202;28;20055;-75
2022/04/14 11:49:34;;;;;;;13.52;8.63;;;14.60;99.90;;;;;;5057824;28;20474;-74
2022/04/14 11:52:04;;;;;;;14.18;7.30;;;14.70;99.90;;;;;;5058554;28;20060;-74
2022/04/14 11:54:30;;;;;;;11.73;8.13;;;14.80;99.90;;;;;;5058630;28;20037;-74
2022/04/14 11:56:59;;;;;;;12.60;7.55;;;14.70;99.90;;;;;;5058026;28;20529;-73
2022/04/14 11:59:32;;;;;;;11.52;7.53;;;14.80;99.90;;;;;;5058095;28;20048;-75
2022/04/14 12:02:04;;;;;;;15.75;8.73;;;14.70;99.90;;;;;;5040498;28;20044;-74
2022/04/14 12:04:37;;;;;;;15.45;9.75;;;14.90;99.90;;;;;;5037990;28;20444;-74
2022/04/14 12:07:04;;;;;;;11.23;7.90;;;15.00;99.90;;;;;;5020434;28;20034;-74
2022/04/14 12:09:30;;;;;;;13.25;9.32;;;15.10;99.90;;;;;;5037831;28;20405;-75
2022/04/14 12:11:55;;;;;;;12.40;8.18;;;15.20;99.90;;;;;;5038275;28;20099;-74
2022/04/14 12:14:21;;;;;;;15.02;8.57;;;15.40;99.90;;;;;;5038046;28;20132;-75
2022/04/14 12:16:48;;;;;;;11.02;7.43;;;15.40;99.90;;;;;;5044680;28;20128;-74
2022/04/14 12:19:14;;;;;;;15.07;8.35;;;15.20;99.90;;;;;;5057748;28;20045;-75
2022/04/14 12:21:39;;;;;;;11.32;8.05;;;15.40;99.90;;;;;;5057866;28;20033;-74
2022/04/14 12:24:05;;;;;;;12.30;7.78;;;15.30;99.90;;;;;;5057629;28;20041;-74
2022/04/14 12:26:35;;;;;;;11.55;7.53;;;15.20;99.90;;;;;;5040496;28;20095;-75
2022/04/14 12:29:01;;;;;;;16.85;7.07;;;15.10;99.90;;;;;;5040141;28;20123;-74
2022/04/14 12:31:29;;;;;;;12.35;7.50;;;15.40;99.90;;;;;;5057537;28;20120;-75
2022/04/14 12:33:58;;;;;;;12.30;7.63;;;15.50;99.90;;;;;;5039923;28;20463;-74
2022/04/14 12:36:35;;;;;;;11.18;7.00;;;15.40;99.90;;;;;;5039753;28;20473;-74